Time;durP1;ratioP1;P1;durP2;ratioP2;P2;SDS_P1;SDS_P2;PMS_P1;PMS_P2;Temp;Humidity;BMP_temperature;BMP_pressure;BME280_temperature;BME280_humidity;BME280_pressure;Samples;Min_cycle;Max_cycle;Signal;HPM_P1;HPM_P2
2023/05/26 00:02:21;;;;;;;13.95;5.45;;;14.20;53.00;;;;;;5054154;28;20057;-48
2023/05/26 00:04:48;;;;;;;10.35;5.60;;;14.20;53.00;;;;;;5056204;28;20045;-49
2023/05/26 00:07:16;;;;;;;13.02;6.70;;;14.20;53.00;;;;;;5050691;28;20044;-49
2023/05/26 00:09:43;;;;;;;15.65;7.03;;;14.10;53.10;;;;;;5054635;28;20056;-48
2023/05/26 00:12:11;;;;;;;13.18;6.30;;;14.10;53.10;;;;;;5047061;28;20053;-48
2023/05/26 00:14:38;;;;;;;14.27;6.50;;;14.10;53.20;;;;;;5052691;28;20400;-48
2023/05/26 00:17:07;;;;;;;11.30;6.20;;;14.10;53.30;;;;;;5053965;28;20044;-47
2023/05/26 00:19:37;;;;;;;13.57;5.78;;;14.00;53.20;;;;;;5049230;28;20357;-49
2023/05/26 00:22:05;;;;;;;15.35;6.53;;;14.00;53.20;;;;;;5045194;28;20060;-48
2023/05/26 00:24:32;;;;;;;13.70;6.70;;;14.00;53.30;;;;;;5053278;28;20048;-48
2023/05/26 00:26:59;;;;;;;15.23;6.05;;;14.00;53.40;;;;;;5052452;28;20048;-47
2023/05/26 00:29:26;;;;;;;13.30;6.55;;;14.00;53.40;;;;;;5055543;28;20500;-47
2023/05/26 00:31:54;;;;;;;10.85;5.90;;;13.90;53.40;;;;;;5050626;28;20055;-48
2023/05/26 00:34:22;;;;;;;9.32;5.28;;;13.90;53.50;;;;;;5055001;28;20067;-48
2023/05/26 00:36:50;;;;;;;8.88;5.57;;;13.90;53.90;;;;;;5050714;28;20049;-48
2023/05/26 00:39:17;;;;;;;9.50;5.18;;;13.90;53.40;;;;;;5054135;28;20063;-50
2023/05/26 00:41:44;;;;;;;12.50;5.20;;;13.90;53.40;;;;;;5054294;28;20056;-48
2023/05/26 00:44:11;;;;;;;15.10;6.25;;;13.90;53.50;;;;;;5051292;28;20087;-48
2023/05/26 00:46:39;;;;;;;11.70;5.45;;;13.80;53.50;;;;;;5050145;28;20053;-48
2023/05/26 00:49:06;;;;;;;15.55;6.15;;;13.80;53.50;;;;;;5054344;28;20400;-50
2023/05/26 00:51:35;;;;;;;11.23;5.93;;;13.80;53.50;;;;;;5049604;28;20048;-48
2023/05/26 00:54:03;;;;;;;17.85;7.30;;;13.80;53.40;;;;;;5053877;28;20048;-50
2023/05/26 00:56:35;;;;;;;10.13;5.88;;;13.80;53.50;;;;;;5056568;28;20408;-48
2023/05/26 00:59:03;;;;;;;10.18;5.18;;;13.80;53.50;;;;;;5052637;28;20049;-48
2023/05/26 01:01:30;;;;;;;10.50;5.88;;;13.80;53.50;;;;;;5051134;28;20060;-52
2023/05/26 01:03:58;;;;;;;10.88;5.75;;;13.80;53.60;;;;;;5035923;23;20057;-88
2023/05/26 01:06:26;;;;;;;10.02;5.75;;;13.70;53.50;;;;;;5005940;28;20054;-89
2023/05/26 01:08:55;;;;;;;11.20;6.25;;;13.70;53.50;;;;;;5007192;28;20512;-88
2023/05/26 01:11:29;;;;;;;8.63;5.28;;;13.70;53.60;;;;;;5010321;28;20416;-88
2023/05/26 01:14:01;;;;;;;12.93;6.93;;;13.70;53.60;;;;;;5009363;28;20050;-88
2023/05/26 01:16:34;;;;;;;12.02;6.43;;;13.70;53.60;;;;;;5007362;28;20377;-89
2023/05/26 01:19:12;;;;;;;13.35;6.97;;;13.70;53.60;;;;;;5014744;28;20050;-87
2023/05/26 01:21:42;;;;;;;14.15;7.28;;;13.70;53.60;;;;;;5005583;28;20488;-86
2023/05/26 01:24:29;;;;;;;10.15;6.28;;;13.70;53.70;;;;;;5006452;28;20064;-87
2023/05/26 01:27:04;;;;;;;11.43;6.30;;;13.70;53.80;;;;;;5007677;28;20055;-88
2023/05/26 01:29:35;;;;;;;11.27;5.45;;;13.60;53.60;;;;;;5006993;28;20058;-87
2023/05/26 01:32:07;;;;;;;15.30;7.28;;;13.60;53.70;;;;;;5007550;28;20053;-89
2023/05/26 01:34:35;;;;;;;13.02;7.18;;;13.60;53.70;;;;;;5005599;28;20249;-88
2023/05/26 01:37:02;;;;;;;9.93;5.55;;;13.50;53.70;;;;;;5004929;28;20060;-88
2023/05/26 01:39:29;;;;;;;16.90;6.97;;;13.50;53.70;;;;;;5008179;28;20061;-87
2023/05/26 01:42:08;;;;;;;13.10;7.65;;;13.50;53.80;;;;;;5012391;28;20053;-89
2023/05/26 01:44:46;;;;;;;13.75;7.15;;;13.50;54.00;;;;;;5005564;28;20137;-90
2023/05/26 01:47:14;;;;;;;15.68;7.88;;;13.50;54.10;;;;;;5005207;28;20058;-88
2023/05/26 01:49:46;;;;;;;14.13;8.25;;;13.40;54.10;;;;;;5007045;28;20413;-88
2023/05/26 01:52:18;;;;;;;20.50;8.10;;;13.40;54.00;;;;;;5003094;28;20504;-88
2023/05/26 01:54:48;;;;;;;16.15;7.95;;;13.40;54.20;;;;;;5010977;28;20440;-88
2023/05/26 01:57:17;;;;;;;16.25;8.50;;;13.30;54.20;;;;;;5004733;28;20046;-89
2023/05/26 01:59:46;;;;;;;13.40;7.63;;;13.30;54.30;;;;;;5003631;28;20049;-90
2023/05/26 02:02:13;;;;;;;12.07;7.57;;;13.30;54.30;;;;;;5003385;28;20065;-89
2023/05/26 02:04:40;;;;;;;15.45;8.65;;;13.30;54.30;;;;;;5004806;28;20061;-87
2023/05/26 02:07:08;;;;;;;15.18;9.02;;;13.20;54.30;;;;;;5003100;28;20058;-88
2023/05/26 02:09:36;;;;;;;15.75;8.45;;;13.20;54.50;;;;;;5004016;28;20408;-87
2023/05/26 02:12:05;;;;;;;14.88;8.10;;;13.20;54.50;;;;;;5004001;28;20046;-88
2023/05/26 02:14:33;;;;;;;21.67;8.57;;;13.20;54.60;;;;;;5004906;28;20489;-87
2023/05/26 02:17:02;;;;;;;14.45;8.02;;;13.10;54.50;;;;;;5001032;28;20069;-88
2023/05/26 02:19:29;;;;;;;14.48;8.48;;;13.10;54.60;;;;;;5005207;28;20135;-88
2023/05/26 02:21:56;;;;;;;13.23;7.68;;;13.00;54.50;;;;;;5002195;28;20493;-87
2023/05/26 02:24:24;;;;;;;14.65;7.63;;;12.90;54.50;;;;;;5004606;28;20054;-90
2023/05/26 02:26:51;;;;;;;12.10;8.15;;;12.90;54.60;;;;;;5002802;28;20058;-89
2023/05/26 02:29:18;;;;;;;14.52;8.73;;;12.80;54.80;;;;;;5003468;28;20117;-89
2023/05/26 02:31:45;;;;;;;16.23;8.00;;;12.80;55.10;;;;;;5002052;28;20050;-89
2023/05/26 02:34:15;;;;;;;17.40;8.30;;;12.70;55.10;;;;;;5003230;28;20520;-88
2023/05/26 02:36:42;;;;;;;20.33;9.50;;;12.70;55.10;;;;;;5001715;28;20501;-88
2023/05/26 02:39:09;;;;;;;15.23;8.65;;;12.60;55.30;;;;;;5009146;28;20425;-88
2023/05/26 02:41:37;;;;;;;19.67;9.55;;;12.60;55.40;;;;;;5003094;28;20053;-89
2023/05/26 02:44:04;;;;;;;15.18;8.32;;;12.50;55.60;;;;;;5002251;28;20405;-89
2023/05/26 02:46:31;;;;;;;19.58;10.27;;;12.40;55.70;;;;;;5001714;28;20129;-89
2023/05/26 02:49:00;;;;;;;14.55;8.85;;;12.40;56.00;;;;;;5002939;28;20054;-90
2023/05/26 02:51:28;;;;;;;20.02;9.50;;;12.30;56.20;;;;;;5002832;28;20050;-88
2023/05/26 02:53:56;;;;;;;22.73;9.73;;;12.30;56.40;;;;;;5003173;28;20058;-91
2023/05/26 02:56:23;;;;;;;15.93;9.07;;;12.20;56.40;;;;;;5004439;28;20072;-90
2023/05/26 02:58:51;;;;;;;23.60;10.70;;;12.20;56.60;;;;;;5003001;28;20057;-88
2023/05/26 03:01:18;;;;;;;18.20;9.68;;;12.10;56.80;;;;;;5008071;28;20053;-90
2023/05/26 03:03:45;;;;;;;19.05;10.45;;;12.10;56.90;;;;;;5002178;28;20073;-87
2023/05/26 03:06:12;;;;;;;19.73;10.20;;;12.00;57.00;;;;;;5002190;28;20065;-87
2023/05/26 03:08:41;;;;;;;22.50;10.45;;;12.00;57.10;;;;;;5001896;28;20061;-87
2023/05/26 03:11:08;;;;;;;18.45;9.52;;;12.00;57.30;;;;;;5002557;28;20416;-87
2023/05/26 03:13:36;;;;;;;15.88;8.35;;;12.00;57.50;;;;;;5002000;28;20385;-90
2023/05/26 03:16:03;;;;;;;21.85;10.27;;;11.90;57.50;;;;;;5000952;28;20053;-90
2023/05/26 03:18:30;;;;;;;16.67;9.45;;;11.90;57.70;;;;;;5001960;28;20057;-90
2023/05/26 03:20:58;;;;;;;22.80;10.05;;;11.90;57.70;;;;;;5000040;28;20057;-88
2023/05/26 03:23:26;;;;;;;25.58;9.57;;;11.90;57.90;;;;;;5001959;28;20080;-87
2023/05/26 03:25:54;;;;;;;21.15;9.32;;;11.90;57.90;;;;;;5003317;28;20408;-87
2023/05/26 03:28:22;;;;;;;22.60;9.50;;;11.90;57.80;;;;;;5000227;28;20048;-90
2023/05/26 03:30:49;;;;;;;25.05;9.60;;;11.90;57.80;;;;;;5002596;28;20079;-88
2023/05/26 03:33:16;;;;;;;18.30;9.00;;;11.90;57.80;;;;;;5001082;28;20053;-89
2023/05/26 03:35:44;;;;;;;19.60;9.30;;;11.90;57.90;;;;;;5001365;28;20061;-88
2023/05/26 03:38:12;;;;;;;14.98;8.65;;;11.90;57.90;;;;;;5001652;28;20056;-87
2023/05/26 03:40:39;;;;;;;18.33;8.40;;;11.90;57.80;;;;;;5001954;28;20053;-87
2023/05/26 03:43:07;;;;;;;19.88;8.73;;;11.90;57.80;;;;;;5001137;28;20409;-87
2023/05/26 03:45:35;;;;;;;20.08;8.55;;;11.90;57.70;;;;;;5003294;28;20053;-89
2023/05/26 03:48:02;;;;;;;20.85;8.15;;;11.90;58.20;;;;;;5001514;28;20046;-91
2023/05/26 03:50:29;;;;;;;21.38;8.43;;;11.90;57.70;;;;;;5002172;28;20057;-88
2023/05/26 03:52:57;;;;;;;26.95;9.25;;;11.90;57.70;;;;;;5007345;28;20409;-88
2023/05/26 03:55:25;;;;;;;20.33;8.48;;;11.90;57.70;;;;;;5001979;28;20052;-88
2023/05/26 03:57:52;;;;;;;18.15;7.85;;;12.00;57.80;;;;;;5001501;28;20060;-87
2023/05/26 04:00:22;;;;;;;25.73;9.32;;;12.00;57.70;;;;;;5002969;28;20504;-91
2023/05/26 04:02:49;;;;;;;22.40;9.05;;;12.00;57.90;;;;;;5001590;28;20053;-90
2023/05/26 04:05:17;;;;;;;21.00;9.20;;;12.00;57.80;;;;;;5002857;28;20065;-88
2023/05/26 04:07:46;;;;;;;23.30;9.52;;;12.00;57.90;;;;;;5000485;28;20053;-92
2023/05/26 04:10:15;;;;;;;21.67;8.50;;;12.00;57.90;;;;;;5001722;28;20050;-87
2023/05/26 04:12:42;;;;;;;22.35;9.02;;;12.00;57.90;;;;;;5000379;28;20046;-90
2023/05/26 04:15:10;;;;;;;19.77;9.07;;;12.00;57.90;;;;;;5001175;28;20084;-89
2023/05/26 04:17:39;;;;;;;19.02;9.15;;;12.00;58.00;;;;;;5001976;28;20050;-88
2023/05/26 04:20:09;;;;;;;18.15;8.35;;;12.00;57.90;;;;;;5002659;28;20057;-87
2023/05/26 04:22:37;;;;;;;25.23;8.73;;;12.10;58.00;;;;;;5001062;28;20057;-89
2023/05/26 04:25:05;;;;;;;23.85;9.73;;;12.10;58.00;;;;;;5001317;28;21236;-89
2023/05/26 04:27:35;;;;;;;22.67;9.90;;;12.10;58.10;;;;;;5001116;28;20454;-88
2023/05/26 04:30:03;;;;;;;24.77;9.77;;;12.10;58.30;;;;;;5000150;28;20374;-89
2023/05/26 04:32:33;;;;;;;22.17;9.68;;;12.10;58.40;;;;;;5000332;28;20061;-89
2023/05/26 04:35:02;;;;;;;27.17;10.32;;;12.10;58.50;;;;;;5001642;28;20455;-87
2023/05/26 04:37:33;;;;;;;15.73;7.95;;;12.00;58.50;;;;;;4999692;28;20058;-90
2023/05/26 04:40:01;;;;;;;17.88;7.82;;;12.00;58.30;;;;;;5000546;28;20049;-90
2023/05/26 04:42:28;;;;;;;15.88;7.97;;;11.90;57.80;;;;;;4999662;28;20086;-88
2023/05/26 04:44:55;;;;;;;23.10;8.27;;;11.90;57.60;;;;;;5000905;28;20061;-87
2023/05/26 04:47:23;;;;;;;24.65;9.82;;;11.70;57.80;;;;;;5000418;28;20065;-88
2023/05/26 04:49:51;;;;;;;20.55;8.75;;;11.70;58.10;;;;;;5000618;28;20059;-88
2023/05/26 04:52:20;;;;;;;18.23;8.65;;;11.60;58.20;;;;;;5000658;28;20080;-89
2023/05/26 04:54:48;;;;;;;26.98;9.95;;;11.50;58.70;;;;;;5001937;28;20050;-89
2023/05/26 04:57:15;;;;;;;29.52;9.65;;;11.50;59.10;;;;;;5001697;28;20073;-91
2023/05/26 04:59:43;;;;;;;24.52;8.88;;;11.40;59.30;;;;;;5001217;28;20382;-88
2023/05/26 05:02:11;;;;;;;25.55;9.40;;;11.30;59.50;;;;;;5001669;28;20653;-88
2023/05/26 05:04:38;;;;;;;31.10;10.05;;;11.30;59.60;;;;;;5000652;28;20497;-89
2023/05/26 05:07:05;;;;;;;28.08;10.02;;;11.20;59.90;;;;;;4999321;28;20477;-88
2023/05/26 05:09:34;;;;;;;28.35;9.93;;;11.20;60.30;;;;;;5001524;28;20076;-86
2023/05/26 05:12:02;;;;;;;29.38;10.00;;;11.20;60.60;;;;;;5004358;28;20493;-88
2023/05/26 05:14:30;;;;;;;29.00;10.07;;;11.20;60.90;;;;;;5003301;28;20060;-88
2023/05/26 05:16:57;;;;;;;22.10;9.00;;;11.20;60.90;;;;;;5003291;28;20054;-89
2023/05/26 05:19:24;;;;;;;29.00;9.30;;;11.20;60.90;;;;;;5009730;28;20425;-91
2023/05/26 05:21:52;;;;;;;28.42;9.05;;;11.20;61.40;;;;;;5003743;28;20054;-89
2023/05/26 05:24:19;;;;;;;35.78;9.68;;;11.20;61.80;;;;;;5003007;28;20068;-90
2023/05/26 05:26:48;;;;;;;36.10;9.85;;;11.20;62.20;;;;;;5004707;28;20457;-87
2023/05/26 05:29:15;;;;;;;34.42;9.48;;;11.20;62.40;;;;;;5002237;28;20054;-89
2023/05/26 05:31:42;;;;;;;30.52;9.57;;;11.20;62.20;;;;;;5004523;28;20050;-88
2023/05/26 05:34:10;;;;;;;35.28;10.48;;;11.20;62.50;;;;;;5003357;28;20060;-86
2023/05/26 05:36:37;;;;;;;40.63;9.88;;;11.30;62.80;;;;;;5003172;28;20053;-87
2023/05/26 05:39:04;;;;;;;32.65;10.75;;;11.30;62.80;;;;;;5003123;28;21065;-87
2023/05/26 05:41:31;;;;;;;31.73;11.20;;;11.30;63.00;;;;;;5002039;28;20053;-87
2023/05/26 05:44:00;;;;;;;36.45;9.65;;;11.40;63.10;;;;;;5003727;28;20068;-88
2023/05/26 05:46:28;;;;;;;36.10;10.88;;;11.40;63.20;;;;;;5004454;28;20057;-87
2023/05/26 05:48:56;;;;;;;34.10;9.85;;;11.50;63.30;;;;;;5010122;28;20489;-92
2023/05/26 05:51:23;;;;;;;30.30;9.88;;;11.50;63.00;;;;;;5002839;28;20057;-89
2023/05/26 05:53:56;;;;;;;41.88;10.75;;;11.50;62.90;;;;;;5003449;28;20069;-93
2023/05/26 05:56:24;;;;;;;33.28;9.88;;;11.60;62.90;;;;;;5003885;28;20062;-88
2023/05/26 05:58:51;;;;;;;33.15;10.07;;;11.60;62.60;;;;;;5001231;28;20054;-89
2023/05/26 06:01:20;;;;;;;30.40;9.90;;;11.70;62.60;;;;;;5001667;28;20065;-88
2023/05/26 06:03:47;;;;;;;36.08;10.57;;;11.70;62.60;;;;;;5007514;28;20531;-91
2023/05/26 06:06:16;;;;;;;28.67;9.73;;;11.80;62.70;;;;;;5003765;28;20289;-93
2023/05/26 06:08:44;;;;;;;36.25;11.15;;;11.90;62.70;;;;;;5003131;28;20092;-89
2023/05/26 06:11:11;;;;;;;41.00;11.38;;;11.90;62.40;;;;;;5004646;28;20050;-90
2023/05/26 06:13:39;;;;;;;30.98;10.73;;;12.00;62.20;;;;;;5004626;28;20057;-90
2023/05/26 06:16:07;;;;;;;37.22;11.57;;;12.10;62.30;;;;;;5004604;28;20057;-90
2023/05/26 06:18:36;;;;;;;31.23;11.00;;;12.10;62.40;;;;;;5004993;28;20049;-91
2023/05/26 06:21:03;;;;;;;29.58;10.93;;;12.20;62.00;;;;;;5005147;28;20057;-90
2023/05/26 06:23:31;;;;;;;32.72;10.57;;;12.20;61.80;;;;;;5000445;28;20615;-91
2023/05/26 06:25:58;;;;;;;39.60;10.93;;;12.30;61.90;;;;;;5003148;28;20050;-90
2023/05/26 06:28:26;;;;;;;28.35;9.98;;;12.30;61.60;;;;;;5003738;28;20061;-90
2023/05/26 06:30:53;;;;;;;33.97;10.70;;;12.40;61.60;;;;;;5008151;28;20286;-90
2023/05/26 06:33:21;;;;;;;38.65;12.60;;;12.50;61.50;;;;;;5001846;28;20080;-91
2023/05/26 06:35:50;;;;;;;35.22;10.95;;;12.50;61.10;;;;;;5003053;28;20504;-90
2023/05/26 06:38:17;;;;;;;32.40;11.45;;;12.60;60.60;;;;;;5002080;28;20066;-90
2023/05/26 06:40:45;;;;;;;39.53;11.45;;;12.70;60.50;;;;;;5001874;28;20041;-91
2023/05/26 06:43:12;;;;;;;35.10;10.98;;;12.80;60.30;;;;;;5002385;28;20096;-91
2023/05/26 06:45:39;;;;;;;35.28;11.10;;;12.80;60.00;;;;;;5002056;28;20050;-91
2023/05/26 06:48:07;;;;;;;31.88;10.20;;;12.90;60.00;;;;;;5001720;28;20492;-90
2023/05/26 06:50:34;;;;;;;34.80;12.02;;;12.90;59.80;;;;;;5001717;28;20070;-90
2023/05/26 06:53:03;;;;;;;30.98;10.30;;;13.00;59.70;;;;;;4999862;28;20049;-89
2023/05/26 06:55:30;;;;;;;38.92;10.80;;;13.10;59.80;;;;;;5002521;28;20057;-90
2023/05/26 06:57:59;;;;;;;35.65;11.45;;;13.10;59.90;;;;;;5000417;28;20065;-91
2023/05/26 07:00:26;;;;;;;39.50;10.88;;;13.20;59.60;;;;;;5009190;28;20065;-92
2023/05/26 07:02:54;;;;;;;39.47;11.07;;;13.30;59.60;;;;;;5001300;28;20084;-89
2023/05/26 07:05:21;;;;;;;38.08;11.70;;;13.40;59.50;;;;;;5001940;28;20064;-89
2023/05/26 07:07:49;;;;;;;35.45;11.15;;;13.40;59.40;;;;;;4999652;28;20066;-89
2023/05/26 07:10:18;;;;;;;34.85;10.20;;;13.50;59.40;;;;;;5002476;28;20054;-90
2023/05/26 07:12:45;;;;;;;36.38;12.88;;;13.60;59.50;;;;;;5002950;28;20409;-92
2023/05/26 07:15:13;;;;;;;40.55;12.50;;;13.60;59.50;;;;;;5002939;28;20057;-91
2023/05/26 07:17:40;;;;;;;36.97;11.23;;;13.70;59.50;;;;;;5000364;28;20578;-89
2023/05/26 07:20:09;;;;;;;41.75;11.88;;;13.80;59.30;;;;;;5001786;28;20050;-90
2023/05/26 07:22:36;;;;;;;33.70;10.45;;;13.80;59.00;;;;;;4999657;28;20485;-89
2023/05/26 07:25:04;;;;;;;39.20;11.45;;;13.90;58.80;;;;;;5000217;28;20493;-88
2023/05/26 07:27:32;;;;;;;28.42;9.30;;;13.90;58.90;;;;;;5000269;28;20049;-87
2023/05/26 07:30:00;;;;;;;40.92;11.65;;;14.00;59.10;;;;;;5001529;28;20069;-89
2023/05/26 07:32:27;;;;;;;33.67;10.55;;;14.10;58.60;;;;;;5000882;28;20386;-90
2023/05/26 07:34:54;;;;;;;34.67;10.18;;;14.20;58.30;;;;;;5007651;28;20420;-90
2023/05/26 07:37:22;;;;;;;31.38;8.77;;;14.20;58.30;;;;;;5001095;28;20057;-89
2023/05/26 07:39:49;;;;;;;40.03;10.90;;;14.30;58.20;;;;;;4999895;28;20046;-90
2023/05/26 07:42:17;;;;;;;41.83;10.90;;;14.30;57.90;;;;;;4998195;28;20064;-88
2023/05/26 07:44:45;;;;;;;35.63;10.38;;;14.40;57.70;;;;;;5002562;28;20053;-88
2023/05/26 07:47:13;;;;;;;32.90;9.32;;;14.50;57.80;;;;;;5002364;28;20386;-93
2023/05/26 07:49:40;;;;;;;30.17;8.77;;;14.50;58.10;;;;;;5007077;28;20080;-90
2023/05/26 07:52:07;;;;;;;40.78;11.13;;;14.60;57.90;;;;;;4999589;28;20536;-88
2023/05/26 07:54:35;;;;;;;28.10;9.48;;;14.70;57.50;;;;;;4999615;28;20060;-89
2023/05/26 07:57:02;;;;;;;38.78;11.15;;;14.70;57.60;;;;;;4998038;28;20061;-92
2023/05/26 07:59:30;;;;;;;32.90;10.35;;;14.80;57.90;;;;;;5001497;28;20057;-91
2023/05/26 08:01:59;;;;;;;34.78;11.43;;;14.90;57.60;;;;;;4999852;28;20056;-89
2023/05/26 08:04:26;;;;;;;35.03;10.85;;;15.00;57.70;;;;;;5001672;28;20054;-90
2023/05/26 08:06:53;;;;;;;28.40;9.18;;;15.00;57.40;;;;;;4998380;28;20065;-90
2023/05/26 08:09:20;;;;;;;37.42;11.45;;;15.10;57.60;;;;;;5006390;28;20046;-91
2023/05/26 08:11:48;;;;;;;31.77;10.20;;;15.10;57.40;;;;;;5001196;28;20397;-91
2023/05/26 08:14:17;;;;;;;36.15;9.57;;;15.20;56.90;;;;;;4999946;28;20069;-88
2023/05/26 08:16:45;;;;;;;31.63;10.57;;;15.20;56.90;;;;;;4999435;28;20080;-89
2023/05/26 08:22:06;;;;;;;29.55;10.20;;;15.40;57.00;;;;;;4949022;28;20071;-89
2023/05/26 08:24:38;;;;;;;40.60;11.18;;;15.40;57.10;;;;;;5011307;28;20049;-91
2023/05/26 08:33:53;;;;;;;35.83;9.88;;;15.70;56.20;;;;;;5019015;28;20518;-90
2023/05/26 08:39:49;;;;;;;37.45;10.60;;;15.80;56.60;;;;;;5038515;28;20402;-92
2023/05/26 08:52:37;;;;;;;40.25;10.57;;;16.10;55.30;;;;;;5041930;28;20048;-89
2023/05/26 08:55:14;;;;;;;;;;;16.20;55.80;;;;;;5027931;28;20053;-90
2023/05/26 09:01:08;;;;;;;35.78;10.77;;;16.30;55.80;;;;;;5016209;28;20048;-89
2023/05/26 09:03:36;;;;;;;33.35;9.52;;;16.40;55.40;;;;;;5006520;28;20416;-90
2023/05/26 09:06:03;;;;;;;41.75;10.98;;;16.40;55.80;;;;;;5004077;28;20725;-90
2023/05/26 09:08:31;;;;;;;37.28;10.38;;;16.50;55.60;;;;;;5002907;28;20432;-91
2023/05/26 09:11:20;;;;;;;42.50;11.32;;;16.60;55.20;;;;;;5002756;28;21092;-90
2023/05/26 09:13:52;;;;;;;42.92;11.73;;;16.60;55.30;;;;;;5009675;28;20050;-91
2023/05/26 09:16:23;;;;;;;29.33;9.38;;;16.70;54.80;;;;;;5004311;28;20501;-90
2023/05/26 09:18:51;;;;;;;29.75;9.70;;;16.80;54.80;;;;;;5005212;28;20054;-90
2023/05/26 09:21:19;;;;;;;29.90;9.45;;;16.90;54.90;;;;;;5003426;28;20057;-90
2023/05/26 09:23:54;;;;;;;31.80;10.45;;;16.90;55.00;;;;;;5003775;28;20054;-90
2023/05/26 09:26:28;;;;;;;34.08;9.43;;;17.00;55.00;;;;;;5004103;28;20065;-90
2023/05/26 09:28:55;;;;;;;30.90;10.25;;;17.10;55.20;;;;;;5004046;28;20137;-89
2023/05/26 09:31:24;;;;;;;34.35;9.88;;;17.20;54.20;;;;;;5011157;28;20050;-89
2023/05/26 09:33:53;;;;;;;33.60;10.13;;;17.30;54.60;;;;;;5003562;28;20072;-90
2023/05/26 09:36:24;;;;;;;29.20;9.15;;;17.40;54.20;;;;;;5003105;28;20058;-91
2023/05/26 09:38:53;;;;;;;35.17;9.98;;;17.50;54.60;;;;;;5004958;28;20061;-91
2023/05/26 09:41:21;;;;;;;36.78;10.77;;;17.50;54.30;;;;;;5004097;28;20493;-90
2023/05/26 09:43:52;;;;;;;35.88;10.77;;;17.60;53.60;;;;;;5003979;28;20049;-92
2023/05/26 09:46:23;;;;;;;34.60;10.73;;;17.70;53.60;;;;;;5004230;28;20149;-90
2023/05/26 09:48:51;;;;;;;33.72;9.63;;;17.70;53.90;;;;;;5003226;28;20112;-90
2023/05/26 09:51:20;;;;;;;39.97;10.20;;;17.80;53.70;;;;;;5001780;28;20054;-90
2023/05/26 09:53:48;;;;;;;33.53;9.65;;;17.90;53.20;;;;;;5002717;28;20409;-90
2023/05/26 09:56:20;;;;;;;39.15;10.40;;;17.90;53.30;;;;;;5003252;28;20529;-90
2023/05/26 09:58:48;;;;;;;38.03;10.60;;;18.00;52.80;;;;;;5003968;28;20058;-89
2023/05/26 10:01:19;;;;;;;30.42;8.88;;;18.10;53.20;;;;;;5003524;28;20054;-90
2023/05/26 10:03:47;;;;;;;46.72;11.02;;;18.20;53.10;;;;;;5003235;28;20053;-91
2023/05/26 10:06:17;;;;;;;32.47;8.68;;;18.30;52.40;;;;;;5003103;28;20065;-91
2023/05/26 10:08:47;;;;;;;36.95;10.45;;;18.40;52.40;;;;;;5003225;28;20053;-90
2023/05/26 10:11:15;;;;;;;37.45;10.60;;;18.50;52.30;;;;;;5004083;28;20531;-89
2023/05/26 10:13:42;;;;;;;36.78;10.00;;;18.50;51.50;;;;;;5002603;28;20053;-90
2023/05/26 10:16:09;;;;;;;26.88;9.15;;;18.60;51.10;;;;;;5002584;28;20618;-91
2023/05/26 10:18:38;;;;;;;31.80;8.43;;;18.70;51.10;;;;;;5002950;28;20053;-90
2023/05/26 10:21:09;;;;;;;32.67;9.35;;;18.80;51.50;;;;;;5002236;28;20050;-91
2023/05/26 10:23:42;;;;;;;33.72;9.00;;;18.80;51.90;;;;;;5001371;28;20066;-89
2023/05/26 10:26:12;;;;;;;34.63;9.20;;;18.90;51.90;;;;;;5003462;28;20081;-90
2023/05/26 10:28:44;;;;;;;35.60;9.73;;;19.00;51.30;;;;;;5002881;28;20061;-89
2023/05/26 10:31:12;;;;;;;30.77;9.40;;;19.10;50.80;;;;;;5002435;28;20058;-90
2023/05/26 10:33:42;;;;;;;28.30;8.23;;;19.20;50.40;;;;;;5002272;28;20049;-90
2023/05/26 10:36:13;;;;;;;38.22;10.73;;;19.20;50.60;;;;;;5004838;28;20064;-90
2023/05/26 10:38:44;;;;;;;30.90;10.43;;;19.30;49.90;;;;;;5000218;28;20054;-90
2023/05/26 10:41:14;;;;;;;27.45;9.32;;;19.30;50.20;;;;;;5002513;28;20057;-90
2023/05/26 10:43:42;;;;;;;31.08;9.27;;;19.30;49.70;;;;;;5002514;28;20068;-90
2023/05/26 10:46:09;;;;;;;36.33;10.20;;;19.40;49.90;;;;;;5001848;28;20478;-89
2023/05/26 10:48:38;;;;;;;29.60;9.65;;;19.40;49.90;;;;;;5001952;28;20096;-90
2023/05/26 10:51:09;;;;;;;30.65;8.02;;;19.40;49.40;;;;;;5000662;28;20057;-90
2023/05/26 10:53:42;;;;;;;30.75;9.32;;;19.50;49.80;;;;;;5000459;28;20054;-90
2023/05/26 10:56:12;;;;;;;29.38;8.50;;;19.50;49.50;;;;;;5002302;28;20366;-89
2023/05/26 10:58:42;;;;;;;27.13;9.55;;;19.60;49.70;;;;;;5003172;28;20046;-91
2023/05/26 11:01:11;;;;;;;30.27;9.77;;;19.60;49.40;;;;;;5002299;28;20060;-90
2023/05/26 11:03:42;;;;;;;24.10;7.38;;;19.70;49.60;;;;;;5000782;28;20160;-91
2023/05/26 11:06:12;;;;;;;24.27;7.43;;;19.80;50.30;;;;;;5002731;28;20057;-90
2023/05/26 11:08:40;;;;;;;26.38;8.02;;;19.90;50.20;;;;;;5000572;28;20085;-89
2023/05/26 11:11:10;;;;;;;32.90;8.50;;;20.00;49.90;;;;;;5008724;28;20048;-90
2023/05/26 11:13:48;;;;;;;25.42;8.43;;;20.10;49.00;;;;;;5002609;28;20059;-91
2023/05/26 11:16:21;;;;;;;31.10;8.82;;;20.20;49.20;;;;;;5000354;28;20057;-91
2023/05/26 11:18:54;;;;;;;30.77;8.30;;;20.30;49.00;;;;;;5000978;28;20413;-91
2023/05/26 11:21:26;;;;;;;36.95;9.15;;;20.40;48.10;;;;;;5000052;28;20056;-90
2023/05/26 11:23:55;;;;;;;26.08;8.23;;;20.40;48.80;;;;;;5008448;28;20057;-91
2023/05/26 11:26:25;;;;;;;31.80;8.52;;;20.50;48.80;;;;;;5001823;28;20053;-91
2023/05/26 11:28:53;;;;;;;35.08;8.60;;;20.60;47.60;;;;;;5001899;28;20057;-90
2023/05/26 11:31:25;;;;;;;23.65;7.43;;;20.70;47.30;;;;;;5003159;28;20076;-91
2023/05/26 11:33:53;;;;;;;31.90;8.00;;;20.80;46.80;;;;;;5002778;28;20049;-90
2023/05/26 11:36:21;;;;;;;30.65;7.68;;;20.80;47.00;;;;;;5000978;28;20061;-91
2023/05/26 11:38:54;;;;;;;33.55;8.82;;;20.80;46.60;;;;;;5001498;28;20054;-93
2023/05/26 11:41:25;;;;;;;30.02;8.00;;;20.90;46.80;;;;;;5000967;28;20057;-90
2023/05/26 11:44:12;;;;;;;22.73;6.80;;;20.90;47.30;;;;;;5001142;28;20614;-90
2023/05/26 11:46:40;;;;;;;26.67;7.30;;;21.00;47.00;;;;;;5000663;28;20045;-89
2023/05/26 11:49:18;;;;;;;23.65;7.35;;;21.00;46.20;;;;;;5009311;28;20057;-90
2023/05/26 11:51:47;;;;;;;28.88;7.65;;;21.10;46.50;;;;;;5006961;28;20063;-91
2023/05/26 11:54:17;;;;;;;28.63;7.60;;;21.20;46.70;;;;;;5002533;28;20062;-89
2023/05/26 11:56:45;;;;;;;20.77;6.50;;;21.20;45.20;;;;;;5005140;28;20057;-90
2023/05/26 11:59:17;;;;;;;31.05;6.82;;;21.30;45.20;;;;;;5002650;28;20091;-90
2023/05/26 12:01:44;;;;;;;25.30;6.72;;;21.30;45.10;;;;;;5002119;28;20504;-90
2023/05/26 12:04:12;;;;;;;30.95;7.78;;;21.30;44.60;;;;;;5001297;28;20073;-86
2023/05/26 12:06:41;;;;;;;26.77;7.22;;;21.30;44.10;;;;;;5001736;28;20493;-87
2023/05/26 12:09:18;;;;;;;23.88;7.28;;;21.30;44.00;;;;;;5000528;28;20053;-90
2023/05/26 12:11:47;;;;;;;24.75;6.63;;;21.30;44.30;;;;;;5008090;28;20732;-89
2023/05/26 12:14:15;;;;;;;26.67;6.57;;;21.30;44.50;;;;;;5001677;28;20057;-89
2023/05/26 12:16:44;;;;;;;25.60;7.88;;;21.30;45.00;;;;;;5001303;28;20049;-91
2023/05/26 12:19:13;;;;;;;21.48;6.25;;;21.20;43.00;;;;;;5005112;28;20058;-90
2023/05/26 12:21:43;;;;;;;20.98;6.63;;;21.30;43.00;;;;;;5004235;28;20054;-89
2023/05/26 12:24:10;;;;;;;20.90;6.50;;;21.20;44.10;;;;;;5005859;28;20050;-90
2023/05/26 12:26:38;;;;;;;24.40;6.35;;;21.20;44.60;;;;;;5011594;28;20515;-89
2023/05/26 12:29:11;;;;;;;23.52;6.38;;;21.20;44.40;;;;;;5005857;28;20060;-87
2023/05/26 12:31:44;;;;;;;21.85;6.18;;;21.30;44.90;;;;;;5005490;28;20057;-88
2023/05/26 12:34:12;;;;;;;25.98;6.90;;;21.30;45.20;;;;;;5005579;28;20050;-94
2023/05/26 12:36:39;;;;;;;17.63;5.43;;;21.30;45.00;;;;;;5004892;28;20054;-89
2023/05/26 12:39:07;;;;;;;15.57;5.18;;;21.50;45.10;;;;;;5005638;28;20069;-89
2023/05/26 12:41:35;;;;;;;19.98;5.70;;;21.50;45.10;;;;;;5005361;28;20378;-88
2023/05/26 12:44:03;;;;;;;21.38;6.53;;;21.60;44.80;;;;;;5005507;28;20053;-89
2023/05/26 12:46:33;;;;;;;17.50;5.32;;;21.70;44.70;;;;;;5004810;28;20073;-90
2023/05/26 12:49:00;;;;;;;24.52;7.00;;;21.70;44.60;;;;;;5005558;28;20060;-90
2023/05/26 12:51:28;;;;;;;24.55;7.13;;;21.70;43.90;;;;;;5010467;28;20058;-91
2023/05/26 12:53:56;;;;;;;21.95;5.50;;;21.80;44.00;;;;;;5005405;28;20386;-90
2023/05/26 12:56:23;;;;;;;20.40;6.05;;;21.80;44.00;;;;;;5006736;28;20409;-91
2023/05/26 12:58:50;;;;;;;20.15;5.78;;;21.90;44.20;;;;;;5005590;28;20058;-90
2023/05/26 13:01:18;;;;;;;24.42;6.10;;;21.90;44.30;;;;;;5004771;28;20053;-91
2023/05/26 13:03:47;;;;;;;22.58;6.47;;;21.90;43.40;;;;;;5006084;28;20421;-90
2023/05/26 13:06:15;;;;;;;20.13;5.70;;;21.90;43.20;;;;;;5005467;28;20061;-93
2023/05/26 13:08:42;;;;;;;16.70;5.78;;;21.90;43.50;;;;;;5004041;28;20054;-90